createdAt,value
2017-05-09T20:10:49.500Z,11.89
2017-05-09T20:12:03.421Z,11.79
2017-05-09T20:13:17.441Z,11.79
2017-05-09T20:14:31.063Z,11.8
2017-05-09T20:15:45.803Z,11.79
2017-05-09T20:16:59.712Z,11.77
2017-05-09T20:18:13.761Z,11.73
2017-05-09T20:19:28.090Z,11.69
2017-05-09T20:20:42.013Z,11.65
2017-05-09T20:21:55.874Z,11.6
2017-05-09T20:23:12.049Z,11.53
2017-05-09T20:24:26.156Z,11.47
2017-05-09T20:25:39.944Z,11.42
2017-05-09T20:27:09.927Z,11.35
2017-05-09T20:28:23.833Z,11.34
2017-05-09T20:29:38.191Z,11.32
2017-05-09T20:30:52.487Z,11.31
2017-05-09T20:32:06.122Z,11.28
2017-05-09T20:33:19.867Z,11.25
2017-05-09T20:34:33.665Z,11.22
2017-05-09T20:35:47.690Z,11.18
2017-05-09T20:37:01.880Z,11.12
2017-05-09T20:38:16.579Z,11.08
2017-05-09T20:39:30.863Z,11.03
2017-05-09T20:40:44.594Z,10.98
2017-05-09T20:41:59.242Z,10.93
2017-05-09T20:43:13.889Z,10.88
2017-05-09T20:44:27.426Z,10.84
2017-05-09T20:46:00.875Z,10.8
2017-05-09T20:47:14.580Z,10.74
2017-05-09T20:48:28.757Z,10.68
2017-05-09T20:49:42.647Z,10.63
2017-05-09T20:50:56.445Z,10.59
2017-05-09T20:52:10.375Z,10.53
2017-05-09T20:53:24.631Z,10.5
2017-05-09T20:54:39.109Z,10.46
2017-05-09T20:55:52.871Z,10.44
2017-05-09T20:57:06.787Z,10.4
2017-05-09T20:58:21.203Z,10.37
2017-05-09T20:59:35.154Z,10.33
2017-05-09T21:00:49.897Z,10.29
2017-05-09T21:02:03.797Z,10.23
2017-05-09T21:03:17.263Z,10.19
2017-05-09T21:04:30.885Z,10.15
2017-05-09T21:05:44.674Z,10.11
2017-05-09T21:06:59.014Z,10.04
2017-05-09T21:08:13.420Z,10.02
2017-05-09T21:09:27.735Z,9.98
2017-05-09T21:10:41.223Z,9.94
2017-05-09T21:11:55.077Z,9.91
2017-05-09T21:13:09.183Z,9.88
2017-05-09T21:14:22.742Z,9.84
2017-05-09T21:15:36.227Z,9.84
2017-05-09T21:16:49.804Z,9.85
2017-05-09T21:18:04.424Z,9.85
2017-05-09T21:19:18.445Z,9.85
2017-05-09T21:20:32.663Z,9.86
2017-05-09T21:21:46.312Z,9.87
2017-05-09T21:22:59.854Z,9.9
2017-05-09T21:24:14.374Z,9.89
2017-05-09T21:25:28.208Z,9.88
2017-05-09T21:26:41.984Z,9.86
2017-05-09T21:27:55.460Z,9.84
2017-05-09T21:29:09.063Z,9.81
2017-05-09T21:30:24.671Z,9.78
2017-05-09T21:31:38.575Z,9.74
2017-05-09T21:32:52.758Z,9.7
2017-05-09T21:34:06.782Z,9.66
2017-05-09T21:35:20.621Z,9.65
2017-05-09T21:36:34.777Z,9.64
2017-05-09T21:37:48.845Z,9.65
2017-05-09T21:39:02.683Z,9.67
2017-05-09T21:40:16.721Z,9.71
2017-05-09T21:41:30.996Z,9.75
2017-05-09T21:42:45.122Z,9.79
2017-05-09T21:43:59.396Z,9.86
2017-05-09T21:45:13.147Z,9.93
2017-05-09T21:46:27.901Z,9.99
2017-05-09T21:47:41.676Z,10.05
2017-05-09T21:48:56.333Z,10.15
2017-05-09T21:50:09.816Z,10.19
2017-05-09T21:51:24.731Z,10.24
2017-05-09T21:52:38.690Z,10.27
2017-05-09T21:53:53.092Z,10.32
2017-05-09T21:55:06.997Z,10.35
2017-05-09T21:56:20.761Z,10.39
2017-05-09T21:57:34.263Z,10.44
2017-05-09T21:58:48.395Z,10.47
2017-05-09T22:00:01.909Z,10.51
2017-05-09T22:01:15.746Z,10.55
2017-05-09T22:02:29.552Z,10.57
2017-05-09T22:03:43.470Z,10.59
2017-05-09T22:04:57.289Z,10.63
2017-05-09T22:06:10.829Z,10.64
2017-05-09T22:07:24.642Z,10.64
2017-05-09T22:08:38.205Z,10.64
2017-05-09T22:09:51.659Z,10.64
2017-05-09T22:11:06.067Z,10.65
2017-05-09T22:12:19.794Z,10.66
2017-05-09T22:13:33.938Z,10.65
2017-05-09T22:14:47.394Z,10.64
2017-05-09T22:16:04.420Z,10.65
2017-05-09T22:17:18.262Z,10.64
2017-05-09T22:18:31.930Z,10.63
2017-05-09T22:19:45.661Z,10.63
2017-05-09T22:20:59.565Z,10.63
2017-05-09T22:22:13.682Z,10.64
2017-05-09T22:23:27.226Z,10.65
2017-05-09T22:24:41.314Z,10.64
2017-05-09T22:25:55.879Z,10.64
2017-05-09T22:27:09.366Z,10.64
2017-05-09T22:28:23.522Z,10.61
2017-05-09T22:29:37.256Z,10.58
2017-05-09T22:30:51.108Z,10.57
2017-05-09T22:32:04.867Z,10.56
2017-05-09T22:33:18.389Z,10.54
2017-05-09T22:34:31.865Z,10.53
2017-05-09T22:35:46.436Z,10.5
2017-05-09T22:37:00.537Z,10.47
2017-05-09T22:38:14.693Z,10.44
2017-05-09T22:39:28.100Z,10.41
2017-05-09T22:40:41.657Z,10.39
2017-05-09T22:41:55.758Z,10.38
2017-05-09T22:43:09.303Z,10.35
2017-05-09T22:44:23.006Z,10.33
2017-05-09T22:45:37.039Z,10.32
2017-05-09T22:46:50.508Z,10.3
2017-05-09T22:48:04.066Z,10.27
2017-05-09T22:49:17.788Z,10.24
2017-05-09T22:50:32.444Z,10.19
2017-05-09T22:51:46.190Z,10.18
2017-05-09T22:53:00.556Z,10.17
2017-05-09T22:54:14.337Z,10.16
2017-05-09T22:55:27.862Z,10.13
2017-05-09T22:56:41.938Z,10.11
2017-05-09T22:57:56.168Z,10.1
2017-05-09T22:59:09.628Z,10.12
2017-05-09T23:00:23.172Z,10.11
2017-05-09T23:01:36.945Z,10.1
2017-05-09T23:02:51.149Z,10.1
2017-05-09T23:04:04.824Z,10.09
